Time;durP1;ratioP1;P1;durP2;ratioP2;P2;SDS_P1;SDS_P2;PMS_P1;PMS_P2;Temp;Humidity;BMP_temperature;BMP_pressure;BME280_temperature;BME280_humidity;BME280_pressure;Samples;Min_cycle;Max_cycle;Signal;HPM_P1;HPM_P2
2022/07/21 00:01:31;;;;;;;;;;;;;;;23.45;41.95;99741.47;3158343;28;19924;-67
2022/07/21 00:03:02;;;;;;;;;;;;;;;23.41;42.25;99739.28;3158024;28;20064;-67
2022/07/21 00:04:33;;;;;;;;;;;;;;;23.31;42.67;99734.91;3158552;28;20348;-67
2022/07/21 00:06:05;;;;;;;;;;;;;;;23.26;42.55;99742.47;3158335;28;19932;-67
2022/07/21 00:07:36;;;;;;;;;;;;;;;23.25;42.81;99740.81;3158372;28;19931;-67
2022/07/21 00:09:10;;;;;;;;;;;;;;;23.23;42.71;99731.34;3158358;28;19935;-67
2022/07/21 00:10:41;;;;;;;;;;;;;;;23.16;42.61;99723.16;3158436;28;20057;-67
2022/07/21 00:12:13;;;;;;;;;;;;;;;23.22;42.33;99734.94;3160328;28;19924;-67
2022/07/21 00:13:45;;;;;;;;;;;;;;;23.19;42.76;99730.81;3160641;28;20007;-67
2022/07/21 00:15:17;;;;;;;;;;;;;;;23.13;42.28;99726.06;3153939;28;19932;-67
2022/07/21 00:16:49;;;;;;;;;;;;;;;23.16;42.53;99734.59;3160799;28;19928;-67
2022/07/21 00:18:20;;;;;;;;;;;;;;;23.13;42.37;99731.38;3160708;28;19935;-67
2022/07/21 00:19:52;;;;;;;;;;;;;;;23.12;42.68;99730.56;3160571;28;19931;-67
2022/07/21 00:21:23;;;;;;;;;;;;;;;23.10;42.59;99731.69;3160328;28;19924;-66
2022/07/21 00:22:55;;;;;;;;;;;;;;;23.06;43.18;99727.69;3160960;28;20290;-67
2022/07/21 00:24:28;;;;;;;;;;;;;;;22.99;43.25;99732.78;3160521;28;20378;-67
2022/07/21 00:26:01;;;;;;;;;;;;;;;22.98;43.12;99727.59;3160057;28;19924;-67
2022/07/21 00:27:32;;;;;;;;;;;;;;;22.98;42.86;99727.59;3160428;28;19925;-67
2022/07/21 00:29:04;;;;;;;;;;;;;;;22.93;43.12;99726.19;3160650;28;20320;-67
2022/07/21 00:30:35;;;;;;;;;;;;;;;22.89;43.34;99722.19;3160429;28;20293;-67
2022/07/21 00:32:07;;;;;;;;;;;;;;;22.87;43.72;99723.31;3160417;28;20087;-66
2022/07/21 00:33:39;;;;;;;;;;;;;;;22.81;43.68;99722.09;3169914;28;20489;-66
2022/07/21 00:35:11;;;;;;;;;;;;;;;22.80;43.54;99725.72;3160989;28;19924;-65
2022/07/21 00:36:43;;;;;;;;;;;;;;;22.77;43.37;99717.22;3160101;28;19924;-65
2022/07/21 00:38:14;;;;;;;;;;;;;;;22.75;43.83;99720.03;3160332;28;19951;-66
2022/07/21 00:39:47;;;;;;;;;;;;;;;22.69;44.00;99708.19;3160343;28;20409;-66
2022/07/21 00:41:19;;;;;;;;;;;;;;;22.61;44.20;99712.56;3160298;28;19928;-66
2022/07/21 00:42:51;;;;;;;;;;;;;;;22.55;44.14;99714.00;3160304;28;19924;-66
2022/07/21 00:44:23;;;;;;;;;;;;;;;22.48;44.45;99713.78;3160266;28;19932;-66
2022/07/21 00:45:54;;;;;;;;;;;;;;;22.44;44.20;99715.03;3160438;28;19928;-66
2022/07/21 00:47:27;;;;;;;;;;;;;;;22.47;44.08;99717.38;3160319;28;19924;-66
2022/07/21 00:48:59;;;;;;;;;;;;;;;22.47;43.78;99717.38;3160242;28;20261;-66
2022/07/21 00:50:30;;;;;;;;;;;;;;;22.50;43.94;99713.59;3160040;28;20001;-66
2022/07/21 00:52:01;;;;;;;;;;;;;;;22.48;43.88;99711.13;3160071;28;19931;-65
2022/07/21 00:53:33;;;;;;;;;;;;;;;22.50;43.75;99713.59;3160027;28;19924;-65
2022/07/21 00:55:05;;;;;;;;;;;;;;;22.52;43.49;99709.00;3160147;28;19927;-66
2022/07/21 00:56:37;;;;;;;;;;;;;;;22.54;43.66;99719.44;3159702;28;20347;-66
2022/07/21 00:58:09;;;;;;;;;;;;;;;22.55;43.46;99715.81;3160199;28;19924;-66
2022/07/21 00:59:41;;;;;;;;;;;;;;;22.57;43.26;99716.50;3160036;28;20387;-66
2022/07/21 01:01:12;;;;;;;;;;;;;;;22.54;43.70;99719.44;3160146;28;20298;-66
2022/07/21 01:02:43;;;;;;;;;;;;;;;22.48;43.84;99721.72;3160115;28;19977;-66
2022/07/21 01:04:14;;;;;;;;;;;;;;;22.44;44.16;99716.84;3160134;28;19924;-66
2022/07/21 01:05:46;;;;;;;;;;;;;;;22.37;44.26;99719.25;3160254;28;19989;-66
2022/07/21 01:07:19;;;;;;;;;;;;;;;22.32;44.35;99716.22;3160030;28;19928;-66
2022/07/21 01:08:51;;;;;;;;;;;;;;;22.29;44.53;99716.50;3160032;28;19924;-66
2022/07/21 01:10:25;;;;;;;;;;;;;;;22.29;44.11;99721.81;3159843;28;20453;-66
2022/07/21 01:11:57;;;;;;;;;;;;;;;22.30;43.98;99712.84;3159700;28;19935;-66
2022/07/21 01:13:29;;;;;;;;;;;;;;;22.32;43.93;99715.38;3159945;28;19928;-66
2022/07/21 01:15:00;;;;;;;;;;;;;;;22.32;43.95;99716.22;3166795;28;19924;-66
2022/07/21 01:16:31;;;;;;;;;;;;;;;22.31;44.03;99714.56;3159790;28;20371;-66
2022/07/21 01:18:03;;;;;;;;;;;;;;;22.33;43.91;99717.91;3156349;28;19924;-65
2022/07/21 01:19:34;;;;;;;;;;;;;;;22.33;43.91;99712.59;3160128;28;19924;-66
2022/07/21 01:21:06;;;;;;;;;;;;;;;22.35;43.91;99710.59;3159868;28;19930;-66
2022/07/21 01:22:39;;;;;;;;;;;;;;;22.37;43.94;99719.25;3158943;28;20031;-66
2022/07/21 01:24:11;;;;;;;;;;;;;;;22.37;44.14;99718.44;3159228;28;20290;-65
2022/07/21 01:25:47;;;;;;;;;;;;;;;22.34;44.04;99716.91;3159925;28;20305;-66
2022/07/21 01:27:19;;;;;;;;;;;;;;;22.33;44.10;99715.25;3159735;28;19989;-66
2022/07/21 01:28:50;;;;;;;;;;;;;;;22.32;44.21;99713.56;3160081;28;19954;-65
2022/07/21 01:30:22;;;;;;;;;;;;;;;22.32;44.23;99715.38;3172279;28;19992;-66
2022/07/21 01:31:54;;;;;;;;;;;;;;;22.32;43.90;99718.88;3159872;28;19924;-66
2022/07/21 01:33:25;;;;;;;;;;;;;;;22.30;44.18;99717.34;3158858;28;19981;-66
2022/07/21 01:34:56;;;;;;;;;;;;;;;22.27;44.39;99715.81;3159573;28;20015;-66
2022/07/21 01:36:27;;;;;;;;;;;;;;;22.22;44.43;99710.13;3159567;28;20373;-66
2022/07/21 01:38:00;;;;;;;;;;;;;;;22.19;44.36;99710.41;3159955;28;19928;-66
2022/07/21 01:41:33;;;;;;;;;;;;;;;22.12;44.40;99712.75;3159656;28;19924;-66
2022/07/21 01:43:05;;;;;;;;;;;;;;;22.10;44.35;99706.78;3159522;28;19997;-66
2022/07/21 01:44:35;;;;;;;;;;;;;;;22.05;44.44;99701.06;3159607;28;19924;-66
2022/07/21 01:46:10;;;;;;;;;;;;;;;22.01;44.42;99708.50;3159611;28;19930;-66
2022/07/21 01:47:42;;;;;;;;;;;;;;;21.96;44.69;99705.44;3159588;28;20046;-66
2022/07/21 01:49:14;;;;;;;;;;;;;;;21.94;44.48;99699.44;3159599;28;19924;-65
2022/07/21 01:50:46;;;;;;;;;;;;;;;21.89;44.61;99701.69;3159853;28;19935;-65
2022/07/21 01:52:16;;;;;;;;;;;;;;;21.87;44.54;99701.00;3159425;28;20005;-66
2022/07/21 01:53:50;;;;;;;;;;;;;;;21.86;44.62;99704.66;3159495;28;20018;-66
2022/07/21 01:55:22;;;;;;;;;;;;;;;21.87;44.23;99695.69;3159252;28;20381;-66
2022/07/21 01:56:53;;;;;;;;;;;;;;;21.85;44.52;99696.81;3159230;28;19924;-66
2022/07/21 01:58:24;;;;;;;;;;;;;;;21.84;44.37;99701.28;3159349;28;19924;-66
2022/07/21 01:59:55;;;;;;;;;;;;;;;21.81;44.47;99704.22;3159122;28;20393;-65
2022/07/21 02:01:28;;;;;;;;;;;;;;;21.79;44.37;99703.53;3159363;28;19924;-66
2022/07/21 02:02:59;;;;;;;;;;;;;;;21.77;44.64;99705.50;3159270;28;19935;-65
2022/07/21 02:04:34;;;;;;;;;;;;;;;21.74;44.62;99700.47;3159267;28;19924;-65
2022/07/21 02:06:07;;;;;;;;;;;;;;;21.74;44.67;99705.75;3159347;28;19924;-65
2022/07/21 02:07:38;;;;;;;;;;;;;;;21.69;44.86;99700.06;3159236;28;20050;-66
2022/07/21 02:09:11;;;;;;;;;;;;;;;21.68;44.63;99698.38;3159358;28;19924;-66
2022/07/21 02:10:43;;;;;;;;;;;;;;;21.68;44.79;99701.91;3159191;28;20379;-66
2022/07/21 02:12:15;;;;;;;;;;;;;;;21.68;44.83;99704.53;3159038;28;19928;-66
2022/07/21 02:13:46;;;;;;;;;;;;;;;21.64;44.71;99703.16;3159416;28;19931;-66
2022/07/21 02:15:18;;;;;;;;;;;;;;;21.61;44.64;99697.28;3152737;28;19928;-66
2022/07/21 02:16:50;;;;;;;;;;;;;;;21.57;44.91;99702.88;3158921;28;19935;-66
2022/07/21 02:18:21;;;;;;;;;;;;;;;21.53;45.05;99704.16;3159115;28;19924;-66
2022/07/21 02:19:53;;;;;;;;;;;;;;;21.54;44.88;99699.69;3159164;28;19924;-66
2022/07/21 02:21:25;;;;;;;;;;;;;;;21.54;45.05;99692.56;3159136;28;19928;-66
2022/07/21 02:22:56;;;;;;;;;;;;;;;21.53;45.11;99700.66;3159216;28;19924;-66
2022/07/21 02:24:29;;;;;;;;;;;;;;;21.51;45.13;99695.50;3158954;28;19927;-65
2022/07/21 02:26:00;;;;;;;;;;;;;;;21.50;45.11;99695.63;3161049;28;19924;-65
2022/07/21 02:27:31;;;;;;;;;;;;;;;21.52;44.92;99706.94;3158893;28;19931;-65
2022/07/21 02:29:03;;;;;;;;;;;;;;;21.53;44.94;99698.84;3158796;28;20325;-65
2022/07/21 02:30:35;;;;;;;;;;;;;;;21.53;44.83;99704.16;3158999;28;20578;-65
2022/07/21 02:32:06;;;;;;;;;;;;;;;21.55;44.83;99702.19;3159088;28;20337;-65
2022/07/21 02:33:38;;;;;;;;;;;;;;;21.56;44.94;99698.56;3159002;28;20419;-66
2022/07/21 02:35:10;;;;;;;;;;;;;;;21.53;44.90;99704.16;3158652;28;19928;-65
2022/07/21 02:36:41;;;;;;;;;;;;;;;21.50;45.10;99696.50;3158271;28;19932;-66
2022/07/21 02:38:13;;;;;;;;;;;;;;;21.47;45.27;99699.41;3159042;28;19924;-66
2022/07/21 02:39:46;;;;;;;;;;;;;;;21.44;45.49;99696.19;3158884;28;19928;-66
2022/07/21 02:41:17;;;;;;;;;;;;;;;21.39;45.72;99691.34;3158702;28;19935;-65
2022/07/21 02:42:49;;;;;;;;;;;;;;;21.35;45.73;99692.56;3159084;28;20459;-65
2022/07/21 02:44:20;;;;;;;;;;;;;;;21.33;45.60;99690.06;3158793;28;19932;-66
2022/07/21 02:45:52;;;;;;;;;;;;;;;21.30;45.89;99694.81;3158611;28;20269;-66
2022/07/21 02:47:24;;;;;;;;;;;;;;;21.29;45.72;99687.81;3158836;28;19993;-65
2022/07/21 02:48:55;;;;;;;;;;;;;;;21.29;45.37;99687.81;3159049;28;19944;-66
2022/07/21 02:50:28;;;;;;;;;;;;;;;21.29;45.68;99682.53;3158873;28;20392;-65
2022/07/21 02:51:59;;;;;;;;;;;;;;;21.31;45.54;99683.22;3158697;28;19928;-66
2022/07/21 02:53:31;;;;;;;;;;;;;;;21.32;45.43;99684.88;3158711;28;19931;-66
2022/07/21 02:55:04;;;;;;;;;;;;;;;21.34;45.30;99685.59;3158846;28;19931;-66
2022/07/21 02:56:35;;;;;;;;;;;;;;;21.37;45.08;99687.16;3159484;28;19989;-66
2022/07/21 02:58:08;;;;;;;;;;;;;;;21.40;45.29;99684.22;3166874;28;19989;-66
2022/07/21 02:59:39;;;;;;;;;;;;;;;21.39;45.29;99686.03;3158889;28;19934;-66
2022/07/21 03:01:11;;;;;;;;;;;;;;;21.38;45.42;99683.53;3158926;28;19925;-66
2022/07/21 03:02:42;;;;;;;;;;;;;;;21.39;45.13;99683.41;3158446;28;20472;-66
2022/07/21 03:04:14;;;;;;;;;;;;;;;21.39;45.23;99685.22;3158758;28;20053;-66
2022/07/21 03:05:44;;;;;;;;;;;;;;;21.35;45.46;99687.25;3158611;28;20267;-66
2022/07/21 03:07:16;;;;;;;;;;;;;;;21.34;45.24;99688.25;3158727;28;19924;-66
2022/07/21 03:08:47;;;;;;;;;;;;;;;21.32;45.34;99693.66;3158747;28;19931;-66
2022/07/21 03:10:19;;;;;;;;;;;;;;;21.30;45.46;99689.50;3156029;28;19928;-66
2022/07/21 03:11:51;;;;;;;;;;;;;;;21.29;45.42;99686.00;3151926;28;19929;-66
2022/07/21 03:13:23;;;;;;;;;;;;;;;21.28;45.24;99689.63;3158390;28;20258;-66
2022/07/21 03:14:53;;;;;;;;;;;;;;;21.30;45.32;99686.88;3158376;28;19932;-66
2022/07/21 03:16:25;;;;;;;;;;;;;;;21.28;45.53;99689.63;3158514;28;20407;-66
2022/07/21 03:17:57;;;;;;;;;;;;;;;21.28;45.39;99688.81;3158540;28;20164;-66
2022/07/21 03:19:28;;;;;;;;;;;;;;;21.26;45.42;99690.75;3158695;28;19928;-66
2022/07/21 03:21:00;;;;;;;;;;;;;;;21.23;45.50;99694.50;3158263;28;20385;-66
2022/07/21 03:22:31;;;;;;;;;;;;;;;21.19;45.82;99692.31;3158831;28;19924;-66
2022/07/21 03:24:02;;;;;;;;;;;;;;;21.11;45.74;99683.22;3158509;28;19930;-66
2022/07/21 03:25:35;;;;;;;;;;;;;;;21.08;45.67;99694.09;3158325;28;19928;-66
2022/07/21 03:27:07;;;;;;;;;;;;;;;21.07;45.90;99689.78;3158333;28;20337;-66
2022/07/21 03:28:38;;;;;;;;;;;;;;;21.01;46.03;99687.69;3158692;28;20601;-66
2022/07/21 03:30:10;;;;;;;;;;;;;;;20.97;46.08;99688.97;3158261;28;19928;-66
2022/07/21 03:31:42;;;;;;;;;;;;;;;20.95;45.93;99690.91;3158289;28;19939;-66
2022/07/21 03:33:14;;;;;;;;;;;;;;;20.93;46.02;99690.19;3158259;28;19928;-66
2022/07/21 03:34:45;;;;;;;;;;;;;;;20.95;45.79;99687.41;3158276;28;19935;-66
2022/07/21 03:36:17;;;;;;;;;;;;;;;20.96;45.94;99689.91;3158328;28;20006;-66
2022/07/21 03:37:50;;;;;;;;;;;;;;;20.98;45.91;99682.69;3158285;28;19928;-66
2022/07/21 03:39:22;;;;;;;;;;;;;;;20.99;45.75;99684.34;3158362;28;19924;-66
2022/07/21 03:40:55;;;;;;;;;;;;;;;20.98;45.88;99685.31;3158372;28;19939;-66
2022/07/21 03:42:26;;;;;;;;;;;;;;;20.99;45.61;99692.28;3157816;28;20393;-66
2022/07/21 03:43:58;;;;;;;;;;;;;;;21.01;45.58;99692.16;3158447;28;19949;-67
2022/07/21 03:45:31;;;;;;;;;;;;;;;20.99;45.97;99700.22;3158462;28;20316;-66
2022/07/21 03:47:02;;;;;;;;;;;;;;;20.97;46.38;99696.91;3160117;28;19931;-66
2022/07/21 03:48:34;;;;;;;;;;;;;;;20.97;45.98;99699.53;3160977;28;19935;-66
2022/07/21 03:50:05;;;;;;;;;;;;;;;20.94;46.19;99689.25;3160769;28;19981;-66
2022/07/21 03:51:37;;;;;;;;;;;;;;;20.94;46.28;99691.03;3160709;28;20040;-66
2022/07/21 03:53:08;;;;;;;;;;;;;;;20.93;46.18;99692.84;3160790;28;19951;-66
2022/07/21 03:54:40;;;;;;;;;;;;;;;20.90;46.32;99691.31;3160548;28;19924;-65
2022/07/21 03:56:13;;;;;;;;;;;;;;;20.89;46.35;99697.59;3160694;28;19985;-67
2022/07/21 03:57:46;;;;;;;;;;;;;;;20.91;46.57;99697.44;3160754;28;20420;-65
2022/07/21 03:59:18;;;;;;;;;;;;;;;20.89;46.58;99696.75;3160647;28;20377;-65
2022/07/21 04:00:49;;;;;;;;;;;;;;;20.90;46.46;99693.13;3160765;28;20419;-66
2022/07/21 04:02:20;;;;;;;;;;;;;;;20.88;46.69;99692.41;3160615;28;19924;-66
2022/07/21 04:03:51;;;;;;;;;;;;;;;20.90;46.50;99701.06;3160610;28;19925;-66
2022/07/21 04:05:22;;;;;;;;;;;;;;;20.92;46.47;99695.63;3160703;28;19924;-66
2022/07/21 04:06:54;;;;;;;;;;;;;;;20.93;46.52;99698.13;3155462;28;19934;-66
2022/07/21 04:08:25;;;;;;;;;;;;;;;20.96;46.28;99703.16;3153896;28;19924;-66
2022/07/21 04:09:56;;;;;;;;;;;;;;;20.97;46.47;99698.69;3160962;28;19967;-66
2022/07/21 04:11:30;;;;;;;;;;;;;;;20.99;46.40;99700.22;3170353;28;19935;-66
2022/07/21 04:13:03;;;;;;;;;;;;;;;21.01;46.17;99698.28;3160692;28;19924;-66
2022/07/21 04:14:34;;;;;;;;;;;;;;;21.08;46.43;99698.56;3160855;28;19932;-66
2022/07/21 04:16:06;;;;;;;;;;;;;;;21.11;45.90;99700.94;3160682;28;19924;-66
2022/07/21 04:17:37;;;;;;;;;;;;;;;21.11;46.22;99699.13;3161615;28;19924;-66
2022/07/21 04:19:08;;;;;;;;;;;;;;;21.14;46.19;99696.19;3163389;28;19934;-66
2022/07/21 04:20:40;;;;;;;;;;;;;;;21.16;46.31;99696.06;3160897;28;19931;-66
2022/07/21 04:22:10;;;;;;;;;;;;;;;21.20;46.14;99692.13;3160689;28;20405;-67
2022/07/21 04:23:42;;;;;;;;;;;;;;;21.22;46.12;99694.66;3160485;28;19965;-66
2022/07/21 04:25:14;;;;;;;;;;;;;;;21.24;46.21;99698.84;3160737;28;20393;-66
2022/07/21 04:26:47;;;;;;;;;;;;;;;21.26;45.94;99696.88;3160896;28;19936;-67
2022/07/21 04:28:19;;;;;;;;;;;;;;;21.29;45.83;99693.94;3160199;28;19928;-66
2022/07/21 04:29:50;;;;;;;;;;;;;;;21.33;45.80;99689.22;3160659;28;19925;-66
2022/07/21 04:31:22;;;;;;;;;;;;;;;21.39;45.44;99694.00;3160449;28;19924;-66
2022/07/21 04:32:53;;;;;;;;;;;;;;;21.44;45.75;99697.03;3160685;28;19928;-66
2022/07/21 04:34:27;;;;;;;;;;;;;;;21.47;45.71;99690.63;3160400;28;20321;-66
2022/07/21 04:35:58;;;;;;;;;;;;;;;21.52;45.69;99691.03;3160321;28;19937;-66
2022/07/21 04:37:30;;;;;;;;;;;;;;;21.55;45.37;99690.75;3160698;28;19932;-66
2022/07/21 04:39:01;;;;;;;;;;;;;;;21.60;45.20;99691.16;3160392;28;19931;-66
2022/07/21 04:40:33;;;;;;;;;;;;;;;21.67;45.23;99691.44;3160316;28;19924;-66
2022/07/21 04:42:06;;;;;;;;;;;;;;;21.72;45.10;99692.66;3160713;28;20001;-66
2022/07/21 04:43:38;;;;;;;;;;;;;;;21.78;44.81;99681.50;3159839;28;20294;-67
2022/07/21 04:45:10;;;;;;;;;;;;;;;21.84;44.86;99685.38;3160360;28;20393;-66
2022/07/21 04:46:42;;;;;;;;;;;;;;;21.89;44.78;99693.75;3160298;28;20030;-66
2022/07/21 04:48:13;;;;;;;;;;;;;;;21.93;44.36;99687.16;3160303;28;20393;-67
2022/07/21 04:49:44;;;;;;;;;;;;;;;21.98;44.63;99690.22;3160540;28;20338;-66
2022/07/21 04:51:15;;;;;;;;;;;;;;;22.06;44.47;99688.66;3160281;28;19989;-66
2022/07/21 04:52:47;;;;;;;;;;;;;;;22.10;44.48;99685.56;3160135;28;19962;-66
2022/07/21 04:54:19;;;;;;;;;;;;;;;22.16;44.18;99684.16;3160257;28;19982;-67
2022/07/21 04:55:51;;;;;;;;;;;;;;;22.22;44.17;99684.44;3160104;28;19924;-66
2022/07/21 04:57:24;;;;;;;;;;;;;;;22.29;44.10;99689.97;3163705;28;19924;-66
2022/07/21 04:58:55;;;;;;;;;;;;;;;22.34;43.78;99693.03;3161457;28;19924;-66
2022/07/21 05:00:28;;;;;;;;;;;;;;;22.42;43.78;99679.88;3160155;28;19932;-66
2022/07/21 05:01:59;;;;;;;;;;;;;;;22.47;43.94;99685.53;3160269;28;20042;-67
2022/07/21 05:03:30;;;;;;;;;;;;;;;22.54;43.52;99687.59;3159851;28;20686;-66
2022/07/21 05:05:02;;;;;;;;;;;;;;;22.61;43.62;99691.34;3159935;28;19935;-66
2022/07/21 05:06:34;;;;;;;;;;;;;;;22.67;43.32;99693.41;3160348;28;19924;-66
2022/07/21 05:08:05;;;;;;;;;;;;;;;22.75;43.20;99695.31;3160132;28;19924;-66
2022/07/21 05:09:37;;;;;;;;;;;;;;;22.80;43.17;99695.69;3160108;28;20503;-66
2022/07/21 05:11:09;;;;;;;;;;;;;;;22.85;43.09;99696.91;3169655;28;19924;-67
2022/07/21 05:12:42;;;;;;;;;;;;;;;22.90;42.92;99699.94;3156359;28;19924;-67
2022/07/21 05:14:13;;;;;;;;;;;;;;;22.98;42.98;99698.38;3163667;28;20004;-66
2022/07/21 05:15:45;;;;;;;;;;;;;;;23.00;42.88;99694.59;3162693;28;19924;-66
2022/07/21 05:17:17;;;;;;;;;;;;;;;23.08;42.94;99696.50;3159959;28;19924;-66
2022/07/21 05:18:48;;;;;;;;;;;;;;;23.14;42.90;99693.22;3159917;28;20321;-66
2022/07/21 05:20:20;;;;;;;;;;;;;;;23.19;42.86;99696.28;3159917;28;19977;-67
2022/07/21 05:21:51;;;;;;;;;;;;;;;23.24;43.09;99685.16;3160074;28;19924;-67
2022/07/21 05:23:23;;;;;;;;;;;;;;;23.30;43.01;99692.53;3159916;28;19924;-66
2022/07/21 05:24:54;;;;;;;;;;;;;;;23.33;43.07;99687.72;3159923;28;20423;-67
2022/07/21 05:26:26;;;;;;;;;;;;;;;23.38;43.22;99692.59;3159868;28;20320;-66
2022/07/21 05:27:59;;;;;;;;;;;;;;;23.42;43.12;99693.13;3159856;28;20472;-67
2022/07/21 05:29:30;;;;;;;;;;;;;;;23.45;43.11;99687.50;3159914;28;19970;-66
2022/07/21 05:31:02;;;;;;;;;;;;;;;23.50;43.14;99680.72;3159759;28;19981;-66
2022/07/21 05:32:34;;;;;;;;;;;;;;;23.56;43.06;99687.25;3159897;28;19924;-66
2022/07/21 05:34:05;;;;;;;;;;;;;;;23.63;43.13;99688.28;3159819;28;19928;-67
2022/07/21 05:35:37;;;;;;;;;;;;;;;23.70;43.08;99681.41;3159898;28;19931;-66
2022/07/21 05:37:08;;;;;;;;;;;;;;;23.79;42.74;99691.09;3159748;28;20386;-66
2022/07/21 05:38:40;;;;;;;;;;;;;;;23.83;42.72;99696.91;3159846;28;19928;-66
2022/07/21 05:40:12;;;;;;;;;;;;;;;23.89;42.66;99682.16;3160067;28;19931;-66
2022/07/21 05:41:43;;;;;;;;;;;;;;;23.94;42.39;99685.19;3159634;28;20261;-67
2022/07/21 05:43:16;;;;;;;;;;;;;;;24.01;42.23;99678.22;3159867;28;20317;-66
2022/07/21 05:44:48;;;;;;;;;;;;;;;24.08;42.53;99689.94;3159488;28;20401;-66
2022/07/21 05:46:19;;;;;;;;;;;;;;;24.16;42.27;99683.78;3159913;28;20007;-66
2022/07/21 05:47:51;;;;;;;;;;;;;;;24.22;42.19;99686.63;3159814;28;19946;-66
2022/07/21 05:49:22;;;;;;;;;;;;;;;24.30;41.94;99681.34;3159484;28;19935;-66
2022/07/21 05:50:54;;;;;;;;;;;;;;;24.39;41.87;99679.56;3159697;28;19928;-66
2022/07/21 05:52:26;;;;;;;;;;;;;;;24.47;41.74;99681.47;3159958;28;19924;-66
2022/07/21 05:53:57;;;;;;;;;;;;;;;24.54;41.51;99684.28;3159381;28;20397;-66
2022/07/21 05:55:29;;;;;;;;;;;;;;;24.61;41.52;99678.19;3159408;28;19928;-66
2022/07/21 05:57:02;;;;;;;;;;;;;;;24.68;40.67;99686.34;3159287;28;19932;-66
2022/07/21 05:58:35;;;;;;;;;;;;;;;24.75;40.82;99684.69;3159839;28;19963;-66
2022/07/21 06:00:07;;;;;;;;;;;;;;;24.83;40.84;99684.69;3155411;28;20371;-66
2022/07/21 06:01:39;;;;;;;;;;;;;;;24.90;40.56;99688.34;3159441;28;19928;-66
2022/07/21 06:03:10;;;;;;;;;;;;;;;24.98;40.71;99690.22;3159398;28;19928;-67
2022/07/21 06:04:42;;;;;;;;;;;;;;;25.08;40.42;99684.72;3159762;28;19932;-66
2022/07/21 06:06:15;;;;;;;;;;;;;;;25.16;40.34;99688.25;3159441;28;19928;-66
2022/07/21 06:07:48;;;;;;;;;;;;;;;25.24;40.20;99691.94;3159487;28;19924;-66
2022/07/21 06:09:19;;;;;;;;;;;;;;;25.31;40.49;99683.09;3158738;28;19939;-66
2022/07/21 06:10:50;;;;;;;;;;;;;;;25.40;40.24;99683.91;3159713;28;19924;-66
2022/07/21 06:12:21;;;;;;;;;;;;;;;25.48;39.89;99678.59;3159260;28;20322;-67
2022/07/21 06:13:54;;;;;;;;;;;;;;;25.56;40.25;99681.25;3159219;28;19951;-67
2022/07/21 06:15:26;;;;;;;;;;;;;;;25.63;40.48;99676.91;3159418;28;19976;-67
2022/07/21 06:16:58;;;;;;;;;;;;;;;25.73;40.03;99673.22;3159345;28;19924;-67
2022/07/21 06:18:29;;;;;;;;;;;;;;;25.79;39.89;99681.38;3159104;28;20005;-66
2022/07/21 06:20:01;;;;;;;;;;;;;;;25.87;39.81;99668.03;3159290;28;20329;-66
2022/07/21 06:21:33;;;;;;;;;;;;;;;25.97;39.54;99667.00;3159217;28;19924;-66
2022/07/21 06:23:04;;;;;;;;;;;;;;;26.06;39.59;99666.81;3159222;28;19935;-66
2022/07/21 06:24:36;;;;;;;;;;;;;;;26.15;39.15;99670.28;3159071;28;19931;-64
2022/07/21 06:26:07;;;;;;;;;;;;;;;26.27;39.02;99668.06;3159137;28;19973;-66
2022/07/21 06:27:39;;;;;;;;;;;;;;;26.38;39.30;99664.16;3159406;28;20034;-66
2022/07/21 06:29:12;;;;;;;;;;;;;;;26.48;38.49;99659.44;3159205;28;20014;-66
2022/07/21 06:30:44;;;;;;;;;;;;;;;26.58;38.37;99654.75;3159103;28;20009;-66
2022/07/21 06:32:15;;;;;;;;;;;;;;;26.70;37.20;99657.84;3159235;28;19990;-66
2022/07/21 06:33:47;;;;;;;;;;;;;;;26.82;37.07;99655.59;3159192;28;19924;-66
2022/07/21 06:35:19;;;;;;;;;;;;;;;26.92;36.00;99651.69;3159528;28;19931;-66
2022/07/21 06:36:50;;;;;;;;;;;;;;;27.00;34.97;99658.78;3159054;28;19924;-66
2022/07/21 06:38:22;;;;;;;;;;;;;;;27.08;34.92;99644.53;3159069;28;19931;-66
2022/07/21 06:39:53;;;;;;;;;;;;;;;27.17;34.75;99644.31;3159116;28;19924;-66
2022/07/21 06:41:26;;;;;;;;;;;;;;;27.26;34.15;99649.59;3158917;28;19924;-66
2022/07/21 06:42:58;;;;;;;;;;;;;;;27.36;34.37;99639.47;3158829;28;19931;-66
2022/07/21 06:44:31;;;;;;;;;;;;;;;27.43;33.83;99640.41;3159106;28;19951;-67
2022/07/21 06:46:02;;;;;;;;;;;;;;;27.52;33.72;99643.84;3158411;28;19924;-67
2022/07/21 06:47:34;;;;;;;;;;;;;;;27.61;32.48;99642.75;3159052;28;19928;-66
2022/07/21 06:49:06;;;;;;;;;;;;;;;27.68;32.93;99641.81;3159012;28;19931;-66
2022/07/21 06:50:38;;;;;;;;;;;;;;;27.78;32.73;99644.25;3159053;28;19924;-66
2022/07/21 06:52:08;;;;;;;;;;;;;;;27.86;32.60;99632.63;3158983;28;19928;-67
2022/07/21 06:53:42;;;;;;;;;;;;;;;27.96;32.29;99637.72;3159022;28;19976;-66
2022/07/21 06:55:12;;;;;;;;;;;;;;;28.04;31.91;99633.09;3158747;28;19977;-67
2022/07/21 06:56:44;;;;;;;;;;;;;;;28.13;31.64;99633.81;3158830;28;20028;-66
2022/07/21 06:58:16;;;;;;;;;;;;;;;28.21;31.71;99633.69;3158729;28;19924;-64
2022/07/21 06:59:49;;;;;;;;;;;;;;;28.30;31.62;99642.44;3158810;28;19931;-66
2022/07/21 07:01:21;;;;;;;;;;;;;;;28.36;31.40;99633.66;3158893;28;19951;-67
2022/07/21 07:02:52;;;;;;;;;;;;;;;28.44;31.80;99633.56;3158581;28;19989;-67
2022/07/21 07:04:24;;;;;;;;;;;;;;;28.52;31.39;99629.97;3158797;28;20254;-67
2022/07/21 07:05:56;;;;;;;;;;;;;;;28.61;31.69;99628.81;3158887;28;19928;-66
2022/07/21 07:07:29;;;;;;;;;;;;;;;28.69;31.49;99623.34;3168735;28;19923;-67
2022/07/21 07:09:00;;;;;;;;;;;;;;;28.76;31.22;99628.75;3161022;28;19963;-67
2022/07/21 07:10:32;;;;;;;;;;;;;;;28.80;31.23;99620.13;3163070;28;19924;-66
2022/07/21 07:12:05;;;;;;;;;;;;;;;28.90;31.13;99621.66;3163605;28;19931;-67
2022/07/21 07:13:36;;;;;;;;;;;;;;;29.00;31.24;99624.84;3158977;28;19977;-67
2022/07/21 07:15:10;;;;;;;;;;;;;;;29.08;30.95;99624.75;3158688;28;19977;-67
2022/07/21 07:16:42;;;;;;;;;;;;;;;29.16;31.07;99621.09;3158676;28;19928;-66
2022/07/21 07:18:13;;;;;;;;;;;;;;;29.25;30.46;99614.56;3158626;28;19950;-65
2022/07/21 07:19:45;;;;;;;;;;;;;;;29.34;30.72;99617.91;3158813;28;19928;-67
2022/07/21 07:21:16;;;;;;;;;;;;;;;29.39;30.19;99608.25;3158608;28;20363;-66
2022/07/21 07:22:48;;;;;;;;;;;;;;;29.46;29.85;99609.16;3158166;28;20439;-66
2022/07/21 07:24:20;;;;;;;;;;;;;;;29.55;29.94;99611.66;3158527;28;19989;-66
2022/07/21 07:25:52;;;;;;;;;;;;;;;29.64;30.36;99608.69;3158578;28;20304;-65
2022/07/21 07:27:23;;;;;;;;;;;;;;;29.70;29.76;99609.75;3158237;28;20324;-66
2022/07/21 07:28:55;;;;;;;;;;;;;;;29.74;29.12;99611.00;3158441;28;20447;-65
2022/07/21 07:30:28;;;;;;;;;;;;;;;29.79;29.44;99603.19;3158336;28;19928;-65
2022/07/21 07:32:00;;;;;;;;;;;;;;;29.82;29.05;99596.59;3158612;28;19951;-66
2022/07/21 07:33:31;;;;;;;;;;;;;;;29.87;29.04;99604.84;3158555;28;19928;-65
2022/07/21 07:35:03;;;;;;;;;;;;;;;29.91;28.41;99600.75;3158265;28;20324;-65
2022/07/21 07:36:35;;;;;;;;;;;;;;;29.93;28.42;99606.75;3158658;28;19985;-65
2022/07/21 07:38:07;;;;;;;;;;;;;;;29.95;28.52;99599.31;3158471;28;19928;-66
2022/07/21 07:39:39;;;;;;;;;;;;;;;30.00;28.78;99599.56;3158331;28;19926;-66
2022/07/21 07:41:11;;;;;;;;;;;;;;;30.09;28.75;99598.34;3158240;28;20448;-66
2022/07/21 07:42:43;;;;;;;;;;;;;;;30.15;28.61;99597.53;3158214;28;19932;-66
2022/07/21 07:44:14;;;;;;;;;;;;;;;30.24;28.43;99597.41;3158190;28;20258;-66
2022/07/21 07:45:47;;;;;;;;;;;;;;;30.32;28.61;99600.75;3158572;28;19928;-66
2022/07/21 07:47:19;;;;;;;;;;;;;;;30.38;28.27;99596.41;3158373;28;20461;-66
2022/07/21 07:48:50;;;;;;;;;;;;;;;30.46;28.54;99601.56;3158553;28;19993;-66
2022/07/21 07:50:22;;;;;;;;;;;;;;;30.53;28.43;99597.06;3158418;28;19978;-66
2022/07/21 07:51:54;;;;;;;;;;;;;;;30.62;28.32;99583.44;3157877;28;20246;-66
2022/07/21 07:53:25;;;;;;;;;;;;;;;30.70;28.64;99596.66;3158267;28;19924;-66
2022/07/21 07:54:57;;;;;;;;;;;;;;;30.74;28.25;99598.75;3158305;28;20304;-66
2022/07/21 07:56:28;;;;;;;;;;;;;;;30.81;28.17;99596.09;3157853;28;20420;-66
2022/07/21 07:58:00;;;;;;;;;;;;;;;30.83;28.57;99588.66;3158166;28;20309;-66
2022/07/21 07:59:32;;;;;;;;;;;;;;;30.91;28.48;99590.28;3158277;28;20368;-66
2022/07/21 08:01:05;;;;;;;;;;;;;;;31.00;28.42;99591.72;3158225;28;19928;-66